Time;durP1;ratioP1;P1;durP2;ratioP2;P2;SDS_P1;SDS_P2;PMS_P1;PMS_P2;Temp;Humidity;BMP_temperature;BMP_pressure;BME280_temperature;BME280_humidity;BME280_pressure;Samples;Min_cycle;Max_cycle;Signal;HPM_P1;HPM_P2
2021/11/24 00:00:29;;;;;;;;;44.75;35.25;;;;;4.05;84.79;101736.75;5120095;27;45653;-75
2021/11/24 00:02:55;;;;;;;;;37.75;31.75;;;;;4.00;85.08;101716.72;5153725;27;45387;-75
2021/11/24 00:05:20;;;;;;;;;47.00;37.25;;;;;4.02;85.04;101721.09;5121761;27;45918;-73
2021/11/24 00:07:46;;;;;;;;;52.50;40.25;;;;;4.02;85.13;101728.91;5122271;27;45288;-74
2021/11/24 00:10:13;;;;;;;;;38.25;34.00;;;;;4.02;84.69;101721.09;5119908;27;46152;-76
2021/11/24 00:12:39;;;;;;;;;45.00;33.00;;;;;3.98;85.02;101718.47;5120330;27;45460;-74
2021/11/24 00:15:06;;;;;;;;;35.25;31.50;;;;;4.02;84.53;101708.09;5121154;27;45267;-74
2021/11/24 00:17:32;;;;;;;;;42.50;33.50;;;;;4.02;85.12;101722.81;5120865;27;45443;-73
2021/11/24 00:19:57;;;;;;;;;42.75;32.75;;;;;3.93;85.35;101716.69;5120982;27;45297;-73
2021/11/24 00:22:23;;;;;;;;;31.25;25.75;;;;;3.96;85.70;101723.69;5121139;27;45326;-76
2021/11/24 00:24:48;;;;;;;;;41.75;31.50;;;;;3.94;85.33;101717.59;5121607;27;45349;-72
2021/11/24 00:27:14;;;;;;;;;38.50;30.50;;;;;3.91;85.50;101721.03;5120776;27;45327;-73
2021/11/24 00:29:40;;;;;;;;;48.25;34.50;;;;;3.85;85.34;101710.59;5153830;27;46387;-73
2021/11/24 00:32:05;;;;;;;;;39.75;32.75;;;;;3.89;85.29;101712.34;5123854;27;45445;-78
2021/11/24 00:34:31;;;;;;;;;44.25;36.25;;;;;3.88;85.94;101713.19;5124841;27;45252;-74
2021/11/24 00:36:56;;;;;;;;;38.25;31.25;;;;;3.88;85.42;101714.94;5120905;27;45550;-72
2021/11/24 00:39:22;;;;;;;;;40.75;34.75;;;;;3.86;85.71;101714.06;5120763;27;45999;-73
2021/11/24 00:41:48;;;;;;;;;44.75;36.00;;;;;3.69;85.28;101686.19;5120065;27;45381;-73
2021/11/24 00:44:13;;;;;;;;;41.50;35.75;;;;;3.73;85.85;101692.28;5120355;27;45275;-73
2021/11/24 00:46:39;;;;;;;;;40.25;34.25;;;;;3.85;85.37;101710.59;5121737;27;45427;-72
2021/11/24 00:49:05;;;;;;;;;30.00;26.00;;;;;3.64;86.43;101686.16;5119860;27;46393;-72
2021/11/24 00:51:30;;;;;;;;;42.50;34.00;;;;;3.55;85.90;101661.81;5119045;27;45342;-73
2021/11/24 00:53:56;;;;;;;;;34.00;31.50;;;;;3.79;86.59;101711.44;5119602;27;45709;-72
2021/11/24 00:56:21;;;;;;;;;41.75;33.75;;;;;3.80;85.89;101710.56;5121807;27;45331;-73
2021/11/24 00:58:47;;;;;;;;;35.25;31.75;;;;;3.78;86.54;101703.59;5120091;27;45349;-74
2021/11/24 01:01:12;;;;;;;;;45.75;34.50;;;;;3.77;86.98;101701.84;5119099;27;45413;-72
2021/11/24 01:03:38;;;;;;;;;35.50;32.75;;;;;3.72;86.66;101686.22;5120344;27;45299;-74
2021/11/24 01:06:03;;;;;;;;;45.00;34.00;;;;;3.74;87.02;101684.50;5119656;27;45556;-72
2021/11/24 01:08:29;;;;;;;;;40.25;32.75;;;;;3.67;87.21;101676.66;5119167;27;45434;-72
2021/11/24 01:10:55;;;;;;;;;42.25;36.50;;;;;3.69;86.15;101683.59;5121329;27;45301;-73
2021/11/24 01:13:20;;;;;;;;;37.75;29.75;;;;;3.71;86.86;101684.50;5120212;27;45328;-73
2021/11/24 01:15:46;;;;;;;;;47.00;34.00;;;;;3.69;86.47;101680.97;5119410;27;45498;-74
2021/11/24 01:18:12;;;;;;;;;41.50;32.75;;;;;3.58;86.65;101660.13;5120219;27;45419;-73
2021/11/24 01:20:38;;;;;;;;;43.25;31.00;;;;;3.68;86.87;101681.84;5122028;27;45238;-72
2021/11/24 01:23:04;;;;;;;;;39.50;34.50;;;;;3.67;86.73;101676.66;5121767;27;45294;-74
2021/11/24 01:25:29;;;;;;;;;37.75;33.75;;;;;3.65;87.36;101680.09;5123543;27;45234;-73
2021/11/24 01:27:56;;;;;;;;;34.00;31.25;;;;;3.63;86.84;101684.44;5123870;27;46570;-74
2021/11/24 01:30:21;;;;;;;;;39.25;31.00;;;;;3.64;87.48;101680.97;5122538;27;45342;-74
2021/11/24 01:32:47;;;;;;;;;25.50;25.50;;;;;3.60;87.36;101671.41;5122655;27;45354;-73
2021/11/24 01:35:12;;;;;;;;;32.50;26.50;;;;;3.60;87.62;101662.72;5119513;27;45498;-73
2021/11/24 01:37:38;;;;;;;;;34.50;30.00;;;;;3.57;87.77;101666.19;5119973;27;45876;-72
2021/11/24 01:40:04;;;;;;;;;39.00;31.50;;;;;3.49;87.30;101644.44;5120861;27;45452;-72
2021/11/24 01:42:30;;;;;;;;;34.00;29.50;;;;;3.57;87.61;101660.97;5154820;27;45328;-73
2021/11/24 01:44:56;;;;;;;;;35.75;27.50;;;;;3.20;87.61;101603.53;5122166;27;45454;-73
2021/11/24 01:47:21;;;;;;;;;38.25;31.75;;;;;3.53;87.08;101659.22;5122528;27;45389;-74
2021/11/24 01:49:48;;;;;;;;;40.25;31.00;;;;;3.53;87.64;101660.94;5121228;27;45916;-74
2021/11/24 01:52:14;;;;;;;;;37.75;29.00;;;;;3.27;88.15;101620.00;5124575;27;45595;-72
2021/11/24 01:54:40;;;;;;;;;31.50;25.75;;;;;3.47;87.28;101648.78;5127011;27;45593;-73
2021/11/24 01:57:05;;;;;;;;;39.00;30.50;;;;;3.51;87.56;101655.72;5129123;27;45265;-73
2021/11/24 01:59:31;;;;;;;;;36.50;31.25;;;;;3.51;87.41;101651.38;5163858;27;45174;-72
2021/11/24 02:01:57;;;;;;;;;38.50;29.75;;;;;3.42;87.00;101630.53;5127133;27;45231;-72
2021/11/24 02:04:23;;;;;;;;;34.50;30.50;;;;;3.48;87.60;101637.50;5126687;27;45328;-73
2021/11/24 02:06:50;;;;;;;;;37.75;32.50;;;;;3.53;86.89;101647.91;5125866;27;45418;-73
2021/11/24 02:09:16;;;;;;;;;38.00;32.75;;;;;3.51;86.91;101640.13;5125489;27;45324;-72
2021/11/24 02:11:44;;;;;;;;;37.25;31.50;;;;;3.52;86.76;101634.06;5124969;27;45312;-72
2021/11/24 02:14:11;;;;;;;;;39.00;30.00;;;;;3.51;86.96;101638.38;5123413;27;45193;-73
2021/11/24 02:16:46;;;;;;;;;40.50;33.50;;;;;3.52;87.75;101634.06;5124180;27;45412;-73
2021/11/24 02:19:13;;;;;;;;;46.75;35.50;;;;;3.53;87.89;101628.00;5153937;27;45448;-72
2021/11/24 02:21:38;;;;;;;;;37.00;31.50;;;;;3.49;87.02;101628.84;5117800;27;45346;-72
2021/11/24 02:24:04;;;;;;;;;40.50;36.25;;;;;3.52;87.21;101641.88;5120938;27;45391;-73
2021/11/24 02:26:29;;;;;;;;;41.75;33.75;;;;;3.51;87.73;101638.38;5120504;27;45626;-71
2021/11/24 02:28:55;;;;;;;;;45.00;34.75;;;;;3.50;87.25;101634.03;5119292;27;45340;-72
2021/11/24 02:31:23;;;;;;;;;38.75;31.25;;;;;3.49;87.32;101626.25;5120038;27;45418;-71
2021/11/24 02:33:54;;;;;;;;;43.00;34.00;;;;;3.46;87.86;101616.66;5120790;27;45397;-74
2021/11/24 02:36:21;;;;;;;;;44.00;36.50;;;;;3.44;88.10;101623.59;5118461;27;47073;-73
2021/11/24 02:38:46;;;;;;;;;39.50;33.00;;;;;3.45;88.42;101619.28;5119427;27;45340;-71
2021/11/24 02:41:13;;;;;;;;;40.50;32.75;;;;;3.34;87.98;101603.59;5120287;27;45417;-72
2021/11/24 02:43:39;;;;;;;;;34.50;31.75;;;;;3.34;88.08;101594.06;5120838;27;45382;-72
2021/11/24 02:46:04;;;;;;;;;47.75;32.50;;;;;3.42;88.42;101608.84;5121638;27;45250;-71
2021/11/24 02:48:30;;;;;;;;;41.75;34.25;;;;;3.27;87.89;101581.91;5120880;27;45435;-71
2021/11/24 02:50:56;;;;;;;;;38.75;30.75;;;;;3.39;88.08;101599.28;5118981;27;45234;-71
2021/11/24 02:53:30;;;;;;;;;43.25;35.00;;;;;3.35;88.62;101592.31;5119486;27;45384;-72
2021/11/24 02:55:56;;;;;;;;;39.75;32.25;;;;;3.28;88.30;101581.03;5118560;27;45304;-73
2021/11/24 02:58:22;;;;;;;;;45.00;33.75;;;;;3.35;88.20;101587.13;5118582;27;45328;-74
2021/11/24 03:00:49;;;;;;;;;42.25;35.00;;;;;3.30;88.61;101583.63;5119862;27;45411;-72
2021/11/24 03:03:14;;;;;;;;;36.50;32.75;;;;;3.33;87.82;101584.53;5120190;27;45407;-71
2021/11/24 03:05:40;;;;;;;;;29.00;24.75;;;;;3.28;88.40;101574.94;5117203;27;46148;-72
2021/11/24 03:08:06;;;;;;;;;49.50;35.00;;;;;3.25;87.92;101575.81;5117640;27;45364;-73
2021/11/24 03:10:33;;;;;;;;;41.50;34.00;;;;;3.31;87.77;101578.44;5118535;27;45312;-73
2021/11/24 03:13:02;;;;;;;;;42.50;32.00;;;;;3.29;88.28;101572.38;5118440;27;45654;-72
2021/11/24 03:15:28;;;;;;;;;32.50;27.00;;;;;3.27;88.63;101563.69;5117806;27;46303;-72
2021/11/24 03:17:54;;;;;;;;;39.50;32.00;;;;;3.27;87.89;101562.81;5118217;27;45382;-74
2021/11/24 03:20:20;;;;;;;;;43.00;34.00;;;;;3.21;87.78;101554.09;5119258;27;45329;-72
2021/11/24 03:22:46;;;;;;;;;46.50;35.50;;;;;3.20;88.11;101551.50;5119104;27;45398;-72
2021/11/24 03:25:11;;;;;;;;;38.75;29.50;;;;;3.26;88.37;101555.88;5119865;27;46218;-73
2021/11/24 03:27:40;;;;;;;;;35.50;29.50;;;;;3.28;87.57;101543.75;5122194;27;45254;-74
2021/11/24 03:30:13;;;;;;;;;41.50;36.75;;;;;3.31;87.97;101535.97;5122145;27;45259;-73
2021/11/24 03:32:38;;;;;;;;;39.50;34.25;;;;;3.42;88.46;101549.03;5121624;27;45294;-72
2021/11/24 03:35:05;;;;;;;;;40.00;31.50;;;;;3.48;87.48;101556.88;5122270;27;45233;-75
2021/11/24 03:37:30;;;;;;;;;38.50;28.00;;;;;3.54;87.04;101556.00;5120748;27;45331;-73
2021/11/24 03:39:56;;;;;;;;;49.75;37.00;;;;;3.57;87.50;101554.31;5120824;27;45337;-73
2021/11/24 03:42:21;;;;;;;;;40.50;33.00;;;;;3.61;86.89;101543.03;5120952;27;45292;-71
2021/11/24 03:44:48;;;;;;;;;41.00;30.75;;;;;3.63;87.23;101541.31;5122126;27;46454;-73
2021/11/24 03:47:13;;;;;;;;;40.75;29.75;;;;;3.70;86.75;101538.75;5122984;27;45391;-71
2021/11/24 03:49:39;;;;;;;;;39.25;34.25;;;;;3.74;86.42;101538.78;5122868;27;45730;-72
2021/11/24 03:52:05;;;;;;;;;38.00;33.75;;;;;3.68;85.95;101530.06;5122634;27;45451;-72
2021/11/24 03:54:31;;;;;;;;;44.00;38.00;;;;;3.79;86.06;101526.66;5121883;27;45365;-76
2021/11/24 03:56:57;;;;;;;;;42.25;31.25;;;;;3.87;86.55;101529.25;5121779;27;45665;-72
2021/11/24 03:59:22;;;;;;;;;41.25;33.75;;;;;3.86;85.88;101518.84;5122161;27;45260;-74
2021/11/24 04:01:47;;;;;;;;;43.25;28.50;;;;;3.86;86.22;101511.91;5123340;27;45583;-74
2021/11/24 04:04:13;;;;;;;;;38.00;30.00;;;;;3.92;86.45;101524.06;5121252;27;45400;-73
2021/11/24 04:06:38;;;;;;;;;47.25;36.50;;;;;3.93;85.62;101518.84;5125851;27;45218;-73
2021/11/24 04:09:04;;;;;;;;;37.75;33.25;;;;;3.96;85.92;101512.81;5124372;27;45197;-74
2021/11/24 04:11:29;;;;;;;;;41.50;31.25;;;;;4.05;85.43;101517.16;5126775;27;45179;-77
2021/11/24 04:13:55;;;;;;;;;44.75;32.00;;;;;4.06;85.11;101517.16;5127927;27;46449;-76
2021/11/24 04:16:20;;;;;;;;;38.50;34.25;;;;;4.06;85.52;101518.88;5122139;27;45393;-75
2021/11/24 04:18:47;;;;;;;;;41.50;33.50;;;;;4.06;85.18;101511.97;5123256;27;45779;-73
2021/11/24 04:21:17;;;;;;;;;37.00;31.50;;;;;4.08;84.84;101509.34;5121353;27;45401;-73
2021/11/24 04:23:43;;;;;;;;;45.25;35.50;;;;;4.04;84.59;101499.78;5120121;27;45635;-74
2021/11/24 04:26:09;;;;;;;;;52.75;36.00;;;;;4.06;84.68;101508.47;5118421;27;45388;-74
2021/11/24 04:28:34;;;;;;;;;38.75;35.25;;;;;3.98;84.81;101498.06;5120156;27;45448;-71
2021/11/24 04:31:02;;;;;;;;;46.00;33.50;;;;;3.92;84.43;101503.25;5153777;27;45249;-72
2021/11/24 04:33:28;;;;;;;;;43.75;36.50;;;;;3.88;85.06;101498.91;5121152;27;46973;-77
2021/11/24 04:35:53;;;;;;;;;50.25;29.25;;;;;3.83;84.70;101488.47;5123374;27;45427;-76
2021/11/24 04:38:18;;;;;;;;;40.00;31.75;;;;;3.82;84.90;101493.69;5120300;27;45333;-76
2021/11/24 04:40:44;;;;;;;;;50.00;34.75;;;;;3.77;85.00;101483.25;5119589;27;45440;-75
2021/11/24 04:43:12;;;;;;;;;46.75;34.50;;;;;3.78;85.51;101492.78;5119061;27;45423;-75
2021/11/24 04:45:37;;;;;;;;;42.25;32.00;;;;;3.74;84.88;101476.31;5120017;27;45344;-76
2021/11/24 04:48:03;;;;;;;;;48.50;35.50;;;;;3.75;84.76;101477.16;5119820;27;45286;-74
2021/11/24 04:50:28;;;;;;;;;51.75;39.00;;;;;3.77;85.32;101480.66;5119666;27;45549;-76
2021/11/24 04:52:54;;;;;;;;;40.50;33.00;;;;;3.69;85.03;101475.41;5118746;27;46084;-74
2021/11/24 04:55:19;;;;;;;;;41.75;31.00;;;;;3.57;85.86;101473.66;5118137;27;45548;-75
2021/11/24 04:57:44;;;;;;;;;40.50;34.75;;;;;3.58;86.22;101479.72;5119405;27;45420;-73
2021/11/24 05:00:16;;;;;;;;;47.50;35.50;;;;;3.47;85.52;101467.53;5120831;27;45499;-73
2021/11/24 05:02:42;;;;;;;;;40.25;34.75;;;;;3.53;86.12;101468.41;5155216;27;46433;-77
2021/11/24 05:05:08;;;;;;;;;41.25;33.75;;;;;3.43;85.88;101463.19;5119861;27;45282;-77
2021/11/24 05:07:33;;;;;;;;;39.00;24.00;;;;;3.50;86.02;101471.91;5153004;27;45257;-75
2021/11/24 05:09:58;;;;;;;;;41.25;32.75;;;;;3.51;85.49;101473.63;5119292;27;45546;-77
2021/11/24 05:12:24;;;;;;;;;42.25;35.25;;;;;3.45;86.40;101465.81;5118875;27;45884;-76
2021/11/24 05:14:50;;;;;;;;;36.25;31.50;;;;;3.44;86.45;101464.94;5118879;27;45266;-78
2021/11/24 05:17:19;;;;;;;;;39.25;27.25;;;;;3.42;86.11;101474.44;5117944;27;45200;-76
2021/11/24 05:19:47;;;;;;;;;45.00;35.75;;;;;3.36;86.61;101458.81;5118192;27;45279;-73
2021/11/24 05:22:14;;;;;;;;;39.75;31.50;;;;;3.39;86.39;101473.59;5119135;27;46225;-71
2021/11/24 05:24:40;;;;;;;;;45.50;34.00;;;;;3.34;87.32;101474.44;5119990;27;45366;-72
2021/11/24 05:27:05;;;;;;;;;25.00;19.50;;;;;3.32;87.22;101470.09;5120157;27;45337;-73
2021/11/24 05:29:31;;;;;;;;;42.00;35.00;;;;;3.27;86.96;101471.78;5119809;27;45515;-72
2021/11/24 05:31:56;;;;;;;;;43.75;32.75;;;;;3.18;86.85;101457.00;5118901;27;45641;-74
2021/11/24 05:34:22;;;;;;;;;45.75;33.50;;;;;3.24;86.83;101467.47;5118559;27;45256;-71
2021/11/24 05:36:47;;;;;;;;;40.00;34.00;;;;;3.21;87.44;101473.50;5117304;27;45438;-73
2021/11/24 05:39:13;;;;;;;;;44.50;35.75;;;;;3.10;87.52;101461.31;5118845;27;45397;-71
2021/11/24 05:41:41;;;;;;;;;42.00;35.00;;;;;3.08;87.33;101456.09;5117324;27;45517;-73
2021/11/24 05:44:20;;;;;;;;;41.75;33.25;;;;;3.05;87.47;101464.75;5118791;27;45417;-73
2021/11/24 05:46:54;;;;;;;;;39.75;34.75;;;;;3.00;87.74;101456.06;5119229;27;45433;-72
2021/11/24 05:49:20;;;;;;;;;44.00;33.50;;;;;2.99;87.10;101459.50;5118595;27;45306;-72
2021/11/24 05:51:46;;;;;;;;;48.75;35.50;;;;;2.97;86.98;101453.44;5119562;27;46417;-72
2021/11/24 05:54:12;;;;;;;;;38.25;30.50;;;;;2.96;87.42;101453.44;5120087;27;45328;-72
2021/11/24 05:56:39;;;;;;;;;37.75;33.50;;;;;2.94;87.52;101452.56;5118660;27;45568;-73
2021/11/24 05:59:06;;;;;;;;;36.75;30.00;;;;;2.92;87.87;101445.63;5118609;27;45544;-71
2021/11/24 06:01:32;;;;;;;;;50.75;37.00;;;;;2.92;87.83;101445.63;5118383;27;45668;-75
2021/11/24 06:03:57;;;;;;;;;40.50;27.25;;;;;2.92;86.89;101442.16;5118160;27;45255;-75
2021/11/24 06:06:23;;;;;;;;;37.00;25.75;;;;;2.91;87.67;101451.69;5151751;27;45325;-75
2021/11/24 06:08:48;;;;;;;;;38.00;28.25;;;;;2.92;87.07;101448.22;5119175;27;45534;-72
2021/11/24 06:11:13;;;;;;;;;41.75;30.00;;;;;2.91;87.45;101453.41;5120085;27;46194;-67
2021/11/24 06:13:39;;;;;;;;;40.75;27.75;;;;;2.89;87.02;101445.63;5122805;27;45223;-72
2021/11/24 06:16:04;;;;;;;;;28.00;24.75;;;;;2.86;87.15;101448.19;5123431;27;45784;-77
2021/11/24 06:18:30;;;;;;;;;36.25;32.00;;;;;2.85;86.88;101436.06;5120012;27;45651;-68
2021/11/24 06:20:55;;;;;;;;;37.75;31.75;;;;;2.83;87.41;101435.19;5118620;27;45305;-71
2021/11/24 06:23:20;;;;;;;;;44.50;35.75;;;;;2.86;87.01;101432.59;5118535;27;45431;-72
2021/11/24 06:25:46;;;;;;;;;39.00;34.75;;;;;2.85;87.15;101433.47;5122688;27;45231;-71
2021/11/24 06:28:12;;;;;;;;;41.00;33.50;;;;;2.88;87.42;101436.09;5120866;27;45436;-75
2021/11/24 06:30:39;;;;;;;;;41.50;34.25;;;;;2.91;86.73;101440.41;5120616;27;45299;-77
2021/11/24 06:33:05;;;;;;;;;31.00;27.00;;;;;2.90;86.78;101442.16;5121556;27;46001;-69
2021/11/24 06:35:30;;;;;;;;;37.75;30.75;;;;;2.91;87.27;101437.81;5122968;27;45411;-70
2021/11/24 06:37:56;;;;;;;;;52.75;33.75;;;;;2.92;86.65;101444.75;5121774;27;45602;-67
2021/11/24 06:40:22;;;;;;;;;42.00;33.00;;;;;2.95;87.23;101426.56;5118932;27;45459;-69
2021/11/24 06:42:48;;;;;;;;;43.00;34.75;;;;;3.00;87.37;101437.00;5119057;27;45357;-70
2021/11/24 06:45:14;;;;;;;;;43.25;34.25;;;;;3.01;86.46;101439.59;5118092;27;45379;-73
2021/11/24 06:47:40;;;;;;;;;46.50;33.25;;;;;3.03;86.40;101431.81;5117699;27;45503;-70
2021/11/24 06:50:07;;;;;;;;;39.00;27.25;;;;;3.03;86.72;101432.69;5117236;27;45440;-71
2021/11/24 06:52:33;;;;;;;;;38.25;31.00;;;;;3.02;86.57;101432.69;5117193;27;45443;-68
2021/11/24 06:54:58;;;;;;;;;36.00;32.50;;;;;3.01;85.77;101436.16;5117405;27;45324;-72
2021/11/24 06:57:24;;;;;;;;;34.00;32.25;;;;;3.00;86.27;101426.59;5117549;27;45314;-73
2021/11/24 06:59:49;;;;;;;;;47.00;39.25;;;;;2.99;85.85;101423.13;5117000;27;46248;-76
2021/11/24 07:02:15;;;;;;;;;65.25;50.00;;;;;2.99;86.16;101417.94;5117329;27;45387;-71
2021/11/24 07:04:40;;;;;;;;;35.75;31.50;;;;;2.97;86.00;101411.00;5082322;27;45353;-73
2021/11/24 07:07:05;;;;;;;;;38.00;27.00;;;;;2.94;85.73;101414.44;5013168;28;45451;-65
2021/11/24 07:09:31;;;;;;;;;37.00;31.25;;;;;2.92;86.30;101410.97;5015554;28;46191;-75
2021/11/24 07:11:57;;;;;;;;;33.00;25.50;;;;;2.89;86.18;101419.63;5011497;28;45378;-77
2021/11/24 07:14:22;;;;;;;;;36.75;28.75;;;;;2.89;85.30;101418.75;5012643;28;45600;-76
2021/11/24 07:16:47;;;;;;;;;41.50;31.50;;;;;2.91;85.94;101422.22;5011673;28;45379;-76
2021/11/24 07:19:13;;;;;;;;;30.25;26.75;;;;;2.92;86.04;101417.03;5014391;28;46159;-75
2021/11/24 07:21:40;;;;;;;;;37.75;32.00;;;;;2.91;85.10;101419.63;5013709;28;45422;-78
2021/11/24 07:24:06;;;;;;;;;50.75;37.50;;;;;2.91;85.63;101414.44;5014000;28;45377;-79
2021/11/24 07:26:31;;;;;;;;;46.00;35.25;;;;;2.90;85.66;101408.38;5013577;28;45381;-78
2021/11/24 07:28:56;;;;;;;;;38.00;28.75;;;;;2.88;85.29;101399.69;5013221;28;46212;-76
2021/11/24 07:31:22;;;;;;;;;35.00;29.75;;;;;2.96;85.49;101415.31;5013224;28;45257;-78
2021/11/24 07:33:47;;;;;;;;;41.25;31.75;;;;;3.01;84.96;101407.56;5014635;28;45494;-76
2021/11/24 07:36:13;;;;;;;;;33.75;27.75;;;;;3.06;84.98;101403.25;5015463;28;45556;-78
2021/11/24 07:38:38;;;;;;;;;46.50;36.75;;;;;3.03;85.72;101382.44;5013337;28;46010;-74
2021/11/24 07:41:04;;;;;;;;;38.00;35.00;;;;;2.89;84.48;101340.78;5012066;27;45387;-74
2021/11/24 07:43:31;;;;;;;;;39.75;32.25;;;;;3.29;83.85;101405.94;5012595;28;45299;-74
2021/11/24 07:45:57;;;;;;;;;41.50;32.25;;;;;3.36;84.02;101410.28;5013467;28;45449;-74
2021/11/24 07:48:24;;;;;;;;;44.75;34.00;;;;;3.38;84.28;101402.47;5013653;28;45908;-72
2021/11/24 07:50:49;;;;;;;;;47.75;36.75;;;;;3.36;83.67;101394.69;5015837;28;45257;-73
2021/11/24 07:53:15;;;;;;;;;34.75;27.00;;;;;3.46;84.21;101402.50;5015025;28;45386;-74
2021/11/24 07:55:40;;;;;;;;;36.25;28.50;;;;;3.47;83.56;101405.09;5012653;28;45447;-78
2021/11/24 07:58:05;;;;;;;;;41.50;30.75;;;;;3.45;82.89;101401.63;5015723;28;45353;-76
2021/11/24 08:00:31;;;;;;;;;36.00;30.75;;;;;3.43;83.47;101403.38;5014004;28;45456;-76
2021/11/24 08:02:56;;;;;;;;;37.75;32.50;;;;;3.35;83.56;101392.94;5021011;27;45749;-75
2021/11/24 08:05:21;;;;;;;;;42.50;29.50;;;;;3.37;83.48;101398.16;5118693;27;45577;-81
2021/11/24 08:07:47;;;;;;;;;30.25;28.50;;;;;3.45;83.02;101408.59;5156165;27;46683;-78
2021/11/24 08:10:13;;;;;;;;;39.25;30.25;;;;;3.42;83.37;101396.41;5120315;27;45421;-77
2021/11/24 08:12:39;;;;;;;;;41.25;32.75;;;;;3.50;83.21;101401.66;5095697;27;45566;-75
2021/11/24 08:15:06;;;;;;;;;41.75;32.00;;;;;3.50;83.21;101391.25;5021571;28;45267;-77
2021/11/24 08:17:31;;;;;;;;;41.75;33.25;;;;;3.61;83.33;101402.53;5017873;27;45495;-76
2021/11/24 08:19:57;;;;;;;;;47.25;34.50;;;;;3.67;83.05;101403.41;5017925;28;45309;-75
2021/11/24 08:22:24;;;;;;;;;36.75;30.50;;;;;3.63;83.00;101389.53;5016507;28;45776;-76
2021/11/24 08:24:49;;;;;;;;;42.50;33.75;;;;;3.70;82.31;101406.88;5015372;28;45487;-77
2021/11/24 08:27:15;;;;;;;;;46.50;28.25;;;;;3.72;81.94;101401.69;5016878;28;45192;-75
2021/11/24 08:29:40;;;;;;;;;32.25;26.25;;;;;3.51;82.37;101360.03;5017303;28;45301;-76
2021/11/24 08:32:07;;;;;;;;;31.00;28.00;;;;;3.80;82.03;101398.25;5018294;28;45840;-75
2021/11/24 08:34:32;;;;;;;;;33.00;25.50;;;;;3.78;81.81;101383.47;5017571;28;45672;-76
2021/11/24 08:36:58;;;;;;;;;35.25;30.50;;;;;3.81;81.50;101391.28;5017485;28;46000;-76
2021/11/24 08:39:25;;;;;;;;;31.00;27.75;;;;;3.87;80.97;101387.84;5017739;28;45461;-77
2021/11/24 08:41:51;;;;;;;;;34.00;29.25;;;;;3.85;81.21;101389.56;5018574;28;45481;-76
2021/11/24 08:44:16;;;;;;;;;32.25;23.00;;;;;3.89;80.91;101394.78;5015567;28;45651;-77
2021/11/24 08:46:43;;;;;;;;;40.25;30.75;;;;;3.90;80.50;101391.31;5015076;28;45559;-76
2021/11/24 08:49:08;;;;;;;;;32.25;25.00;;;;;3.97;80.93;101389.59;5016439;28;45286;-76
2021/11/24 08:51:35;;;;;;;;;41.50;27.75;;;;;4.04;80.96;101390.44;5016678;28;45289;-77
2021/11/24 08:54:01;;;;;;;;;43.50;35.25;;;;;4.06;80.18;101384.38;5017271;28;45475;-76
2021/11/24 08:56:28;;;;;;;;;38.25;26.25;;;;;4.04;80.10;101380.03;5018038;28;46004;-77
2021/11/24 08:58:54;;;;;;;;;28.25;19.75;;;;;4.08;80.43;101380.03;5018535;28;45381;-75
2021/11/24 09:01:19;;;;;;;;;35.25;27.50;;;;;4.13;79.82;101380.00;5017189;28;45329;-76
2021/11/24 09:03:44;;;;;;;;;36.25;31.00;;;;;4.17;79.76;101371.31;5015758;28;45649;-75
2021/11/24 09:06:10;;;;;;;;;42.25;33.75;;;;;4.20;79.90;101362.66;5019581;28;47257;-76
2021/11/24 09:08:36;;;;;;;;;38.75;32.75;;;;;4.23;79.41;101358.31;5017319;27;45422;-75
2021/11/24 09:11:02;;;;;;;;;54.25;38.75;;;;;4.23;79.82;101360.91;5015060;28;45365;-76
2021/11/24 09:13:27;;;;;;;;;33.75;27.00;;;;;4.26;79.77;101356.59;5015098;28;45384;-76
2021/11/24 09:15:53;;;;;;;;;42.50;35.25;;;;;4.29;79.36;101353.97;5016625;28;45208;-77
2021/11/24 09:18:18;;;;;;;;;34.25;28.25;;;;;4.29;79.80;101340.97;5016989;28;45217;-76
2021/11/24 09:20:47;;;;;;;;;39.00;32.00;;;;;4.46;79.00;101351.31;5017226;28;45310;-76
2021/11/24 09:23:15;;;;;;;;;34.75;30.75;;;;;4.44;78.26;101348.75;5017375;28;45233;-74
2021/11/24 09:25:50;;;;;;;;;35.75;33.00;;;;;4.44;78.68;101340.91;5014683;28;46226;-76
2021/11/24 09:28:18;;;;;;;;;36.00;29.25;;;;;4.47;78.65;101340.91;5014413;28;45259;-76
2021/11/24 09:30:44;;;;;;;;;53.75;42.50;;;;;4.52;78.74;101343.50;5015111;28;45433;-76
2021/11/24 09:33:09;;;;;;;;;47.50;36.25;;;;;4.60;78.88;101348.69;5016345;28;45500;-75
2021/11/24 09:35:35;;;;;;;;;48.50;36.75;;;;;4.71;77.89;101356.47;5016212;28;45238;-75
2021/11/24 09:38:01;;;;;;;;;53.50;36.50;;;;;4.80;78.33;101341.66;5013890;27;45313;-77
2021/11/24 09:40:28;;;;;;;;;38.00;31.00;;;;;4.91;78.25;101340.75;5015707;28;45310;-76
2021/11/24 09:43:00;;;;;;;;;36.50;32.25;;;;;5.09;78.21;101345.03;5014534;28;45313;-75
2021/11/24 09:45:27;;;;;;;;;38.00;28.75;;;;;5.23;77.21;101340.59;5016683;28;45392;-76
2021/11/24 09:47:56;;;;;;;;;36.50;33.00;;;;;5.23;76.31;101322.34;5015385;28;45451;-78
2021/11/24 09:50:25;;;;;;;;;45.50;34.00;;;;;5.34;76.37;101331.84;5014440;27;45369;-76
2021/11/24 09:52:54;;;;;;;;;47.00;35.00;;;;;5.42;76.24;101337.88;5031689;28;45300;-77
2021/11/24 09:55:21;;;;;;;;;29.50;26.50;;;;;5.41;76.36;101318.75;5018914;27;46071;-75
2021/11/24 09:57:48;;;;;;;;;32.25;26.50;;;;;5.47;75.81;101323.06;5014177;28;45267;-75
2021/11/24 10:00:14;;;;;;;;;33.00;29.50;;;;;5.56;75.65;101330.81;5012769;28;45465;-77
2021/11/24 10:02:42;;;;;;;;;44.00;32.00;;;;;5.60;75.50;101329.06;5014034;28;45562;-75
2021/11/24 10:05:08;;;;;;;;;34.75;29.00;;;;;5.75;75.76;101329.81;5016863;27;47204;-75
2021/11/24 10:07:34;;;;;;;;;33.00;29.00;;;;;5.89;75.31;101333.19;5015591;28;45339;-76
2021/11/24 10:09:59;;;;;;;;;32.25;28.50;;;;;5.99;74.30;101332.22;5015950;28;45382;-75
2021/11/24 10:12:25;;;;;;;;;39.50;32.50;;;;;6.02;74.67;101327.88;5016307;28;45321;-76
2021/11/24 10:14:50;;;;;;;;;33.50;28.75;;;;;6.09;74.99;101322.59;5014411;28;46049;-76
2021/11/24 10:17:21;;;;;;;;;39.00;35.50;;;;;6.26;75.10;101332.00;5015306;28;45358;-75
2021/11/24 10:20:07;;;;;;;;;29.25;24.75;;;;;6.40;73.48;101330.13;5016105;28;45355;-74
2021/11/24 10:22:34;;;;;;;;;34.50;27.00;;;;;6.37;72.85;101316.22;5016540;28;45502;-74
2021/11/24 10:25:03;;;;;;;;;27.25;27.00;;;;;6.33;73.29;101301.44;5013939;28;45355;-74
2021/11/24 10:27:44;;;;;;;;;32.00;28.50;;;;;6.47;72.99;101302.19;5015262;28;45334;-75
2021/11/24 10:30:20;;;;;;;;;26.75;25.25;;;;;6.48;71.97;101293.44;5015963;28;45415;-77
2021/11/24 10:32:46;;;;;;;;;30.50;27.50;;;;;6.51;70.99;101289.91;5016313;28;45398;-76
2021/11/24 10:35:13;;;;;;;;;36.75;27.00;;;;;6.52;71.55;101289.91;5012049;27;46678;-75
2021/11/24 10:37:39;;;;;;;;;33.00;27.75;;;;;6.53;71.28;101289.03;5012877;28;45576;-76
2021/11/24 10:40:08;;;;;;;;;31.50;28.75;;;;;6.35;72.58;101260.47;5014464;28;45293;-76
2021/11/24 10:42:38;;;;;;;;;37.50;32.00;;;;;6.68;71.87;101282.72;5014473;28;45330;-76
2021/11/24 10:45:15;;;;;;;;;32.50;30.50;;;;;6.81;72.47;101278.22;5015052;28;45450;-75
2021/11/24 10:47:57;;;;;;;;;40.50;34.00;;;;;6.91;71.81;101272.88;5013595;28;45535;-75
2021/11/24 10:50:34;;;;;;;;;28.75;28.00;;;;;7.04;70.59;101270.97;5013977;28;45267;-74
2021/11/24 10:53:00;;;;;;;;;28.75;22.75;;;;;7.09;70.08;101275.22;5012393;28;45398;-75
2021/11/24 10:55:30;;;;;;;;;34.25;30.00;;;;;7.07;69.65;101261.28;5014018;28;46062;-76
2021/11/24 10:58:05;;;;;;;;;33.25;29.25;;;;;7.04;69.66;101263.97;5015794;28;45475;-77
2021/11/24 11:00:37;;;;;;;;;34.00;30.50;;;;;6.92;70.49;101257.16;5013982;27;45359;-75
2021/11/24 11:03:05;;;;;;;;;28.25;25.25;;;;;6.98;70.01;101250.97;5014109;28;45388;-76
2021/11/24 11:05:30;;;;;;;;;39.25;30.75;;;;;7.08;70.37;101236.00;5014627;27;48166;-78
2021/11/24 11:07:58;;;;;;;;;35.75;29.75;;;;;7.34;69.74;101239.97;5014914;28;45414;-76
2021/11/24 11:10:29;;;;;;;;;32.50;29.25;;;;;7.37;70.32;101222.44;5015558;28;45635;-76
2021/11/24 11:13:01;;;;;;;;;41.75;32.25;;;;;7.59;70.10;101237.81;5014889;28;45258;-77